sensor_id;sensor_type;location;lat;lon;timestamp;P1;durP1;ratioP1;P2;durP2;ratioP2
42670;SDS011;28283;55.426;37.756;2023-02-28T00:03:04;6.32;;;3.90;;
42670;SDS011;28283;55.426;37.756;2023-02-28T00:08:05;7.38;;;4.03;;
42670;SDS011;28283;55.426;37.756;2023-02-28T00:13:06;6.10;;;3.72;;
42670;SDS011;28283;55.426;37.756;2023-02-28T00:18:07;4.60;;;3.42;;
42670;SDS011;28283;55.426;37.756;2023-02-28T00:23:08;4.25;;;2.42;;
42670;SDS011;28283;55.426;37.756;2023-02-28T00:28:08;3.92;;;2.45;;
42670;SDS011;28283;55.426;37.756;2023-02-28T00:33:09;4.53;;;2.75;;
42670;SDS011;28283;55.426;37.756;2023-02-28T00:38:09;5.47;;;3.10;;
42670;SDS011;28283;55.426;37.756;2023-02-28T00:43:10;4.70;;;3.33;;
42670;SDS011;28283;55.426;37.756;2023-02-28T00:48:11;4.05;;;3.10;;
42670;SDS011;28283;55.426;37.756;2023-02-28T00:53:11;3.15;;;2.60;;
42670;SDS011;28283;55.426;37.756;2023-02-28T00:58:12;6.47;;;3.13;;
42670;SDS011;28283;55.426;37.756;2023-02-28T01:03:12;5.63;;;4.40;;
42670;SDS011;28283;55.426;37.756;2023-02-28T01:08:14;5.80;;;4.03;;
42670;SDS011;28283;55.426;37.756;2023-02-28T01:13:14;5.65;;;3.90;;
42670;SDS011;28283;55.426;37.756;2023-02-28T01:18:16;5.22;;;3.28;;
42670;SDS011;28283;55.426;37.756;2023-02-28T01:23:16;7.38;;;3.92;;
42670;SDS011;28283;55.426;37.756;2023-02-28T01:28:17;5.78;;;2.95;;
42670;SDS011;28283;55.426;37.756;2023-02-28T01:33:18;3.78;;;2.75;;
42670;SDS011;28283;55.426;37.756;2023-02-28T01:38:18;5.57;;;3.55;;
42670;SDS011;28283;55.426;37.756;2023-02-28T01:43:23;4.38;;;2.85;;
42670;SDS011;28283;55.426;37.756;2023-02-28T01:48:31;4.68;;;3.83;;
42670;SDS011;28283;55.426;37.756;2023-02-28T01:53:39;4.35;;;2.88;;
42670;SDS011;28283;55.426;37.756;2023-02-28T01:58:46;5.25;;;2.55;;
42670;SDS011;28283;55.426;37.756;2023-02-28T02:03:51;3.58;;;2.53;;
42670;SDS011;28283;55.426;37.756;2023-02-28T02:08:55;3.13;;;2.90;;
42670;SDS011;28283;55.426;37.756;2023-02-28T02:40:43;6.93;;;4.13;;
42670;SDS011;28283;55.426;37.756;2023-02-28T02:46:00;5.40;;;3.42;;
42670;SDS011;28283;55.426;37.756;2023-02-28T02:51:23;6.68;;;4.75;;
42670;SDS011;28283;55.426;37.756;2023-02-28T02:56:27;7.07;;;4.45;;
42670;SDS011;28283;55.426;37.756;2023-02-28T03:01:30;3.50;;;2.83;;
42670;SDS011;28283;55.426;37.756;2023-02-28T03:06:32;8.75;;;2.75;;
42670;SDS011;28283;55.426;37.756;2023-02-28T03:11:34;3.83;;;3.05;;
42670;SDS011;28283;55.426;37.756;2023-02-28T03:27:27;7.57;;;4.53;;
42670;SDS011;28283;55.426;37.756;2023-02-28T03:32:57;5.75;;;3.00;;
42670;SDS011;28283;55.426;37.756;2023-02-28T03:38:14;2.67;;;1.77;;
42670;SDS011;28283;55.426;37.756;2023-02-28T03:43:25;3.40;;;2.40;;
42670;SDS011;28283;55.426;37.756;2023-02-28T03:48:45;3.33;;;2.30;;
42670;SDS011;28283;55.426;37.756;2023-02-28T03:54:09;8.52;;;3.65;;
42670;SDS011;28283;55.426;37.756;2023-02-28T03:59:28;5.93;;;3.13;;
42670;SDS011;28283;55.426;37.756;2023-02-28T04:04:34;5.40;;;3.28;;
42670;SDS011;28283;55.426;37.756;2023-02-28T04:09:35;2.45;;;2.08;;
42670;SDS011;28283;55.426;37.756;2023-02-28T04:14:36;5.07;;;3.40;;
42670;SDS011;28283;55.426;37.756;2023-02-28T04:19:37;4.15;;;2.50;;
42670;SDS011;28283;55.426;37.756;2023-02-28T04:24:38;4.38;;;2.47;;
42670;SDS011;28283;55.426;37.756;2023-02-28T04:29:41;5.32;;;3.00;;
42670;SDS011;28283;55.426;37.756;2023-02-28T04:34:44;6.30;;;3.78;;
42670;SDS011;28283;55.426;37.756;2023-02-28T04:39:45;5.55;;;3.65;;
42670;SDS011;28283;55.426;37.756;2023-02-28T04:44:45;3.63;;;2.85;;
42670;SDS011;28283;55.426;37.756;2023-02-28T04:49:47;5.03;;;2.15;;
42670;SDS011;28283;55.426;37.756;2023-02-28T04:54:48;10.18;;;3.67;;
42670;SDS011;28283;55.426;37.756;2023-02-28T04:59:49;4.68;;;2.58;;
42670;SDS011;28283;55.426;37.756;2023-02-28T05:04:49;5.53;;;4.10;;
42670;SDS011;28283;55.426;37.756;2023-02-28T05:09:50;4.38;;;3.35;;
42670;SDS011;28283;55.426;37.756;2023-02-28T05:14:51;4.47;;;3.47;;
42670;SDS011;28283;55.426;37.756;2023-02-28T05:19:51;5.65;;;3.67;;
42670;SDS011;28283;55.426;37.756;2023-02-28T05:24:52;4.32;;;2.33;;
42670;SDS011;28283;55.426;37.756;2023-02-28T05:29:53;3.80;;;2.70;;
42670;SDS011;28283;55.426;37.756;2023-02-28T05:34:53;3.03;;;2.10;;
42670;SDS011;28283;55.426;37.756;2023-02-28T05:39:54;5.07;;;3.42;;
42670;SDS011;28283;55.426;37.756;2023-02-28T05:44:55;4.47;;;3.22;;
42670;SDS011;28283;55.426;37.756;2023-02-28T05:49:55;3.75;;;2.53;;
42670;SDS011;28283;55.426;37.756;2023-02-28T05:54:56;3.53;;;2.20;;
42670;SDS011;28283;55.426;37.756;2023-02-28T05:59:57;2.55;;;2.17;;
42670;SDS011;28283;55.426;37.756;2023-02-28T06:04:57;2.22;;;1.73;;
42670;SDS011;28283;55.426;37.756;2023-02-28T06:09:58;2.85;;;2.33;;
42670;SDS011;28283;55.426;37.756;2023-02-28T06:14:59;5.30;;;3.15;;
42670;SDS011;28283;55.426;37.756;2023-02-28T06:19:59;3.22;;;2.42;;
42670;SDS011;28283;55.426;37.756;2023-02-28T06:25:00;3.58;;;1.95;;
42670;SDS011;28283;55.426;37.756;2023-02-28T06:30:00;3.72;;;2.47;;
42670;SDS011;28283;55.426;37.756;2023-02-28T06:35:02;4.22;;;2.72;;
42670;SDS011;28283;55.426;37.756;2023-02-28T06:40:03;1.60;;;1.50;;
42670;SDS011;28283;55.426;37.756;2023-02-28T06:45:06;3.65;;;2.42;;
42670;SDS011;28283;55.426;37.756;2023-02-28T06:50:10;4.38;;;2.58;;
42670;SDS011;28283;55.426;37.756;2023-02-28T06:55:12;2.60;;;1.77;;
42670;SDS011;28283;55.426;37.756;2023-02-28T07:00:14;3.45;;;2.67;;
42670;SDS011;28283;55.426;37.756;2023-02-28T07:05:15;6.65;;;1.98;;
42670;SDS011;28283;55.426;37.756;2023-02-28T07:10:19;3.85;;;2.75;;
42670;SDS011;28283;55.426;37.756;2023-02-28T07:15:20;3.58;;;2.85;;
42670;SDS011;28283;55.426;37.756;2023-02-28T07:20:21;3.75;;;2.85;;
42670;SDS011;28283;55.426;37.756;2023-02-28T07:25:22;4.10;;;2.58;;
42670;SDS011;28283;55.426;37.756;2023-02-28T07:30:24;4.20;;;2.78;;
42670;SDS011;28283;55.426;37.756;2023-02-28T07:35:24;4.72;;;2.63;;
42670;SDS011;28283;55.426;37.756;2023-02-28T07:40:25;3.53;;;1.55;;
42670;SDS011;28283;55.426;37.756;2023-02-28T07:45:26;8.60;;;3.70;;
42670;SDS011;28283;55.426;37.756;2023-02-28T07:50:28;9.48;;;4.13;;
42670;SDS011;28283;55.426;37.756;2023-02-28T07:55:31;4.53;;;3.05;;
42670;SDS011;28283;55.426;37.756;2023-02-28T08:00:31;3.55;;;2.25;;
42670;SDS011;28283;55.426;37.756;2023-02-28T08:05:32;9.52;;;4.05;;
42670;SDS011;28283;55.426;37.756;2023-02-28T08:15:33;5.30;;;2.13;;
42670;SDS011;28283;55.426;37.756;2023-02-28T08:20:34;4.22;;;3.65;;
42670;SDS011;28283;55.426;37.756;2023-02-28T08:30:35;5.18;;;3.63;;
42670;SDS011;28283;55.426;37.756;2023-02-28T08:35:36;4.68;;;2.65;;
42670;SDS011;28283;55.426;37.756;2023-02-28T08:40:37;4.05;;;3.08;;
42670;SDS011;28283;55.426;37.756;2023-02-28T08:50:38;8.30;;;3.10;;
42670;SDS011;28283;55.426;37.756;2023-02-28T09:00:42;4.88;;;3.05;;
42670;SDS011;28283;55.426;37.756;2023-02-28T09:10:54;1.67;;;1.42;;
42670;SDS011;28283;55.426;37.756;2023-02-28T09:15:58;4.95;;;3.00;;
42670;SDS011;28283;55.426;37.756;2023-02-28T09:20:59;4.97;;;2.58;;
42670;SDS011;28283;55.426;37.756;2023-02-28T09:26:05;7.38;;;2.30;;
42670;SDS011;28283;55.426;37.756;2023-02-28T09:31:06;5.68;;;2.70;;
42670;SDS011;28283;55.426;37.756;2023-02-28T09:41:14;3.63;;;1.98;;
42670;SDS011;28283;55.426;37.756;2023-02-28T09:51:57;2.25;;;1.85;;
42670;SDS011;28283;55.426;37.756;2023-02-28T10:07:50;2.00;;;1.30;;
42670;SDS011;28283;55.426;37.756;2023-02-28T10:13:02;3.13;;;2.05;;
42670;SDS011;28283;55.426;37.756;2023-02-28T10:18:09;1.63;;;1.52;;
42670;SDS011;28283;55.426;37.756;2023-02-28T10:23:21;3.50;;;2.58;;
42670;SDS011;28283;55.426;37.756;2023-02-28T10:28:32;4.25;;;2.30;;
42670;SDS011;28283;55.426;37.756;2023-02-28T10:33:34;2.42;;;2.20;;
42670;SDS011;28283;55.426;37.756;2023-02-28T10:38:36;3.83;;;1.60;;
42670;SDS011;28283;55.426;37.756;2023-02-28T10:43:39;4.50;;;2.28;;
42670;SDS011;28283;55.426;37.756;2023-02-28T10:48:43;4.35;;;2.78;;
42670;SDS011;28283;55.426;37.756;2023-02-28T10:53:52;4.15;;;2.40;;
42670;SDS011;28283;55.426;37.756;2023-02-28T10:58:58;4.03;;;2.75;;
42670;SDS011;28283;55.426;37.756;2023-02-28T11:04:03;2.80;;;2.10;;
42670;SDS011;28283;55.426;37.756;2023-02-28T11:09:18;7.88;;;3.30;;
42670;SDS011;28283;55.426;37.756;2023-02-28T11:14:31;3.47;;;2.63;;
42670;SDS011;28283;55.426;37.756;2023-02-28T11:19:53;3.58;;;2.85;;
42670;SDS011;28283;55.426;37.756;2023-02-28T11:24:57;4.60;;;3.20;;
42670;SDS011;28283;55.426;37.756;2023-02-28T11:30:01;6.88;;;1.83;;
42670;SDS011;28283;55.426;37.756;2023-02-28T11:40:14;4.25;;;2.60;;
42670;SDS011;28283;55.426;37.756;2023-02-28T11:45:24;3.50;;;1.92;;
42670;SDS011;28283;55.426;37.756;2023-02-28T11:50:56;8.50;;;3.40;;
42670;SDS011;28283;55.426;37.756;2023-02-28T16:32:14;2.15;;;1.58;;
42670;SDS011;28283;55.426;37.756;2023-02-28T16:37:17;2.83;;;1.67;;
42670;SDS011;28283;55.426;37.756;2023-02-28T16:42:20;1.63;;;1.38;;
42670;SDS011;28283;55.426;37.756;2023-02-28T16:47:24;2.28;;;2.08;;
42670;SDS011;28283;55.426;37.756;2023-02-28T16:52:28;4.88;;;2.47;;
42670;SDS011;28283;55.426;37.756;2023-02-28T16:57:29;1.98;;;1.45;;
42670;SDS011;28283;55.426;37.756;2023-02-28T17:02:31;3.80;;;2.50;;
42670;SDS011;28283;55.426;37.756;2023-02-28T17:07:31;4.13;;;1.90;;
42670;SDS011;28283;55.426;37.756;2023-02-28T17:12:32;2.55;;;1.95;;
42670;SDS011;28283;55.426;37.756;2023-02-28T17:22:34;4.82;;;2.00;;
42670;SDS011;28283;55.426;37.756;2023-02-28T17:27:35;3.47;;;1.58;;
42670;SDS011;28283;55.426;37.756;2023-02-28T17:32:36;3.63;;;2.03;;
42670;SDS011;28283;55.426;37.756;2023-02-28T17:42:38;2.35;;;1.30;;
42670;SDS011;28283;55.426;37.756;2023-02-28T17:47:39;3.00;;;1.55;;
42670;SDS011;28283;55.426;37.756;2023-02-28T17:52:43;3.60;;;1.73;;
42670;SDS011;28283;55.426;37.756;2023-02-28T18:02:45;1.88;;;1.65;;
42670;SDS011;28283;55.426;37.756;2023-02-28T18:07:46;2.30;;;1.17;;
42670;SDS011;28283;55.426;37.756;2023-02-28T18:12:47;2.10;;;1.42;;
42670;SDS011;28283;55.426;37.756;2023-02-28T18:17:49;1.40;;;1.13;;
42670;SDS011;28283;55.426;37.756;2023-02-28T18:22:50;1.58;;;1.27;;
42670;SDS011;28283;55.426;37.756;2023-02-28T18:27:51;0.80;;;0.50;;
42670;SDS011;28283;55.426;37.756;2023-02-28T18:32:58;1.60;;;1.30;;
42670;SDS011;28283;55.426;37.756;2023-02-28T18:38:05;1.10;;;1.02;;
42670;SDS011;28283;55.426;37.756;2023-02-28T18:43:14;1.15;;;0.73;;
42670;SDS011;28283;55.426;37.756;2023-02-28T18:48:15;4.13;;;1.30;;
42670;SDS011;28283;55.426;37.756;2023-02-28T18:53:18;1.58;;;1.30;;
42670;SDS011;28283;55.426;37.756;2023-02-28T18:58:19;0.80;;;0.60;;
42670;SDS011;28283;55.426;37.756;2023-02-28T19:03:20;2.92;;;0.70;;
42670;SDS011;28283;55.426;37.756;2023-02-28T19:08:20;0.93;;;0.40;;
42670;SDS011;28283;55.426;37.756;2023-02-28T19:18:21;2.28;;;0.47;;
42670;SDS011;28283;55.426;37.756;2023-02-28T19:23:22;1.52;;;0.50;;
42670;SDS011;28283;55.426;37.756;2023-02-28T19:33:23;1.45;;;0.40;;
42670;SDS011;28283;55.426;37.756;2023-02-28T19:43:25;0.47;;;0.20;;
42670;SDS011;28283;55.426;37.756;2023-02-28T19:48:25;2.08;;;0.60;;
42670;SDS011;28283;55.426;37.756;2023-02-28T19:53:31;2.63;;;0.50;;
42670;SDS011;28283;55.426;37.756;2023-02-28T19:58:32;0.10;;;0.10;;
42670;SDS011;28283;55.426;37.756;2023-02-28T20:03:33;0.43;;;0.30;;
42670;SDS011;28283;55.426;37.756;2023-02-28T20:08:34;1.05;;;0.25;;
42670;SDS011;28283;55.426;37.756;2023-02-28T20:13:36;2.33;;;0.50;;
42670;SDS011;28283;55.426;37.756;2023-02-28T20:18:37;1.08;;;0.20;;
42670;SDS011;28283;55.426;37.756;2023-02-28T20:23:39;3.78;;;0.73;;
42670;SDS011;28283;55.426;37.756;2023-02-28T20:28:41;0.38;;;0.20;;
42670;SDS011;28283;55.426;37.756;2023-02-28T20:33:42;1.80;;;0.30;;
42670;SDS011;28283;55.426;37.756;2023-02-28T20:38:43;0.20;;;0.10;;
42670;SDS011;28283;55.426;37.756;2023-02-28T20:43:44;0.95;;;0.50;;
42670;SDS011;28283;55.426;37.756;2023-02-28T20:53:46;2.53;;;0.70;;
42670;SDS011;28283;55.426;37.756;2023-02-28T20:58:47;1.80;;;0.43;;
42670;SDS011;28283;55.426;37.756;2023-02-28T21:03:51;3.53;;;0.57;;
42670;SDS011;28283;55.426;37.756;2023-02-28T21:08:53;1.35;;;0.32;;
42670;SDS011;28283;55.426;37.756;2023-02-28T21:13:57;1.90;;;0.75;;
42670;SDS011;28283;55.426;37.756;2023-02-28T21:18:59;1.25;;;0.22;;
42670;SDS011;28283;55.426;37.756;2023-02-28T21:24:04;1.45;;;0.35;;
42670;SDS011;28283;55.426;37.756;2023-02-28T21:29:05;2.25;;;0.45;;
42670;SDS011;28283;55.426;37.756;2023-02-28T21:39:10;1.90;;;0.30;;
42670;SDS011;28283;55.426;37.756;2023-02-28T21:44:24;0.57;;;0.20;;
42670;SDS011;28283;55.426;37.756;2023-02-28T21:49:27;2.13;;;0.43;;
42670;SDS011;28283;55.426;37.756;2023-02-28T21:59:28;0.52;;;0.32;;
42670;SDS011;28283;55.426;37.756;2023-02-28T22:09:29;1.30;;;0.20;;
42670;SDS011;28283;55.426;37.756;2023-02-28T22:19:31;0.47;;;0.25;;
42670;SDS011;28283;55.426;37.756;2023-02-28T22:29:32;3.10;;;0.40;;
42670;SDS011;28283;55.426;37.756;2023-02-28T22:39:33;1.38;;;0.60;;
42670;SDS011;28283;55.426;37.756;2023-02-28T22:49:34;0.47;;;0.47;;
42670;SDS011;28283;55.426;37.756;2023-02-28T22:54:35;0.70;;;0.30;;
42670;SDS011;28283;55.426;37.756;2023-02-28T22:59:35;1.92;;;0.43;;
42670;SDS011;28283;55.426;37.756;2023-02-28T23:09:36;0.77;;;0.45;;
42670;SDS011;28283;55.426;37.756;2023-02-28T23:14:37;4.82;;;0.95;;
42670;SDS011;28283;55.426;37.756;2023-02-28T23:24:38;1.02;;;0.50;;
42670;SDS011;28283;55.426;37.756;2023-02-28T23:29:39;2.22;;;0.43;;
42670;SDS011;28283;55.426;37.756;2023-02-28T23:34:39;2.80;;;0.82;;
42670;SDS011;28283;55.426;37.756;2023-02-28T23:44:41;0.40;;;0.40;;
42670;SDS011;28283;55.426;37.756;2023-02-28T23:49:41;6.65;;;0.65;;
42670;SDS011;28283;55.426;37.756;2023-02-28T23:59:42;2.87;;;0.30;;
